createdAt,value
2018-12-25T00:00:51.345Z,101581.02
2018-12-25T00:03:21.807Z,101581.87
2018-12-25T00:05:52.298Z,101591.08
2018-12-25T00:08:42.202Z,101608.10
2018-12-25T00:11:32.140Z,101603.66
2018-12-25T00:14:02.934Z,101602.47
2018-12-25T00:16:35.132Z,101600.50
2018-12-25T00:19:06.306Z,101592.81
2018-12-25T00:21:57.260Z,101595.53
2018-12-25T00:24:27.702Z,101597.18
2018-12-25T00:26:58.213Z,101597.11
2018-12-25T00:29:28.684Z,101601.42
2018-12-25T00:31:59.452Z,101595.66
2018-12-25T00:34:29.932Z,101593.54
2018-12-25T00:37:19.849Z,101600.52
2018-12-25T00:39:50.329Z,101602.89
2018-12-25T00:42:20.777Z,101599.40
2018-12-25T00:45:10.733Z,101602.37
2018-12-25T00:47:41.176Z,101598.67
2018-12-25T00:50:11.959Z,101604.44
2018-12-25T00:53:02.303Z,101606.85
2018-12-25T00:55:32.743Z,101607.73
2018-12-25T00:58:03.227Z,101610.50
2018-12-25T01:00:53.132Z,101610.30
2018-12-25T01:03:23.800Z,101599.64
2018-12-25T01:05:54.244Z,101593.11
2018-12-25T01:08:26.718Z,101594.68
2018-12-25T01:10:57.180Z,101586.42
2018-12-25T01:13:27.617Z,101589.91
2018-12-25T01:15:58.419Z,101596.52
2018-12-25T01:18:28.853Z,101601.89
2018-12-25T01:20:59.680Z,101605.28
2018-12-25T01:23:30.655Z,101613.73
2018-12-25T01:26:01.079Z,101614.78
2018-12-25T01:28:31.669Z,101615.86
2018-12-25T01:31:02.102Z,101622.39
2018-12-25T01:33:32.547Z,101623.27
2018-12-25T01:36:03.010Z,101623.20
2018-12-25T01:38:33.752Z,101623.89
2018-12-25T01:41:04.231Z,101621.05
2018-12-25T01:43:34.984Z,101620.84
2018-12-25T01:46:05.426Z,101620.54
2018-12-25T01:48:35.884Z,101621.14
2018-12-25T01:51:06.395Z,101622.02
2018-12-25T01:53:36.873Z,101622.54
2018-12-25T01:56:07.309Z,101616.17
2018-12-25T01:58:38.490Z,101621.41
2018-12-25T02:01:08.957Z,101620.30
2018-12-25T02:03:39.430Z,101618.77
2018-12-25T02:06:29.390Z,101618.06
2018-12-25T02:09:19.296Z,101609.95
2018-12-25T02:11:49.800Z,101611.16
2018-12-25T02:14:20.232Z,101608.47
2018-12-25T02:17:09.757Z,101611.28
2018-12-25T02:19:40.628Z,101597.21
2018-12-25T02:22:11.432Z,101594.01
2018-12-25T02:24:41.902Z,101591.16
2018-12-25T02:27:12.348Z,101584.30
2018-12-25T02:32:58.455Z,101582.83
2018-12-25T02:35:29.294Z,101575.45
2018-12-25T02:37:59.727Z,101579.09
2018-12-25T02:40:30.172Z,101585.95
2018-12-25T02:43:00.616Z,101584.10
2018-12-25T02:45:31.420Z,101589.08
2018-12-25T02:48:01.914Z,101586.52
2018-12-25T02:50:32.343Z,101582.46
2018-12-25T02:53:22.309Z,101587.83
2018-12-25T02:55:54.465Z,101581.50
2018-12-25T02:58:44.413Z,101584.99
2018-12-25T03:01:14.850Z,101579.09
2018-12-25T03:03:45.301Z,101570.72
2018-12-25T03:06:16.287Z,101565.80
2018-12-25T03:08:46.723Z,101560.73
2018-12-25T03:11:36.680Z,101566.95
2018-12-25T03:14:07.133Z,101563.83
2018-12-25T03:16:37.557Z,101556.53
2018-12-25T03:19:08.021Z,101558.33
2018-12-25T03:21:38.459Z,101554.08
2018-12-25T03:24:28.397Z,101550.63
2018-12-25T03:27:18.684Z,101555.84
2018-12-25T03:29:49.166Z,101547.46
2018-12-25T03:32:19.996Z,101546.91
2018-12-25T03:34:50.418Z,101549.47
2018-12-25T03:37:20.883Z,101556.85
2018-12-25T03:40:11.099Z,101552.24
2018-12-25T03:43:19.956Z,101556.30
2018-12-25T03:45:50.386Z,101551.19
2018-12-25T03:48:20.868Z,101562.78
2018-12-25T03:50:51.300Z,101564.02
2018-12-25T03:53:21.738Z,101572.91
2018-12-25T03:55:52.191Z,101549.79
2018-12-25T03:58:42.093Z,101545.82
2018-12-25T04:01:12.566Z,101549.79
2018-12-25T04:03:43.400Z,101556.56
2018-12-25T04:06:13.828Z,101550.55
2018-12-25T04:08:44.665Z,101544.97
2018-12-25T04:11:15.098Z,101556.41
2018-12-25T04:13:46.069Z,101550.95
2018-12-25T04:16:16.551Z,101556.08
2018-12-25T04:18:46.983Z,101561.05
2018-12-25T04:21:17.455Z,101556.16
2018-12-25T04:23:47.874Z,101548.86
2018-12-25T04:26:18.697Z,101544.36
2018-12-25T04:28:49.127Z,101545.45
2018-12-25T04:31:21.289Z,101544.81
2018-12-25T04:33:52.161Z,101541.00
2018-12-25T04:36:24.304Z,101546.69
2018-12-25T04:38:55.151Z,101550.19
2018-12-25T04:41:27.285Z,101554.78
2018-12-25T04:43:57.883Z,101551.06
2018-12-25T04:46:28.353Z,101558.20
2018-12-25T04:48:58.799Z,101553.44
2018-12-25T04:51:29.831Z,101552.67
2018-12-25T04:54:00.262Z,101560.08
2018-12-25T04:56:30.693Z,101565.61
2018-12-25T04:59:20.621Z,101554.95
2018-12-25T05:01:51.053Z,101559.31
2018-12-25T05:04:21.559Z,101554.70
2018-12-25T05:06:52.384Z,101554.26
2018-12-25T05:09:22.832Z,101559.31
2018-12-25T05:12:13.097Z,101563.56
2018-12-25T05:14:43.538Z,101557.91
2018-12-25T05:17:14.013Z,101569.82
2018-12-25T05:20:03.956Z,101563.28
2018-12-25T05:22:53.896Z,101562.97
2018-12-25T05:25:24.641Z,101563.09
2018-12-25T05:27:55.072Z,101569.39
2018-12-25T05:30:25.536Z,101567.94
2018-12-25T05:32:55.969Z,101572.27
2018-12-25T05:35:26.769Z,101567.25
2018-12-25T05:37:57.205Z,101561.16
2018-12-25T05:40:27.642Z,101558.20
2018-12-25T05:42:58.109Z,101552.75
2018-12-25T05:45:48.014Z,101561.72
2018-12-25T05:48:20.591Z,101561.23
2018-12-25T05:50:51.032Z,101568.42
2018-12-25T05:53:21.460Z,101565.08
2018-12-25T05:55:51.920Z,101557.53
2018-12-25T05:58:22.350Z,101553.70
2018-12-25T06:00:52.830Z,101554.17
2018-12-25T06:03:23.291Z,101554.89
2018-12-25T06:05:55.439Z,101551.98
2018-12-25T06:08:27.620Z,101544.83
2018-12-25T06:10:58.070Z,101544.30
2018-12-25T06:13:28.901Z,101550.52
2018-12-25T06:15:59.497Z,101552.37
2018-12-25T06:18:30.271Z,101548.19
2018-12-25T06:21:00.732Z,101553.70
2018-12-25T06:23:31.168Z,101558.55
2018-12-25T06:26:01.645Z,101548.17
2018-12-25T06:28:32.078Z,101542.48
2018-12-25T06:31:02.926Z,101541.55
2018-12-25T06:33:33.381Z,101543.04
2018-12-25T06:36:04.196Z,101541.23
2018-12-25T06:38:34.674Z,101538.59
2018-12-25T06:41:05.105Z,101533.78
2018-12-25T06:43:35.541Z,101534.17
2018-12-25T06:46:06.002Z,101535.39
2018-12-25T06:48:36.439Z,101529.49
2018-12-25T06:51:06.919Z,101521.87
2018-12-25T06:53:37.349Z,101529.09
2018-12-25T06:56:08.152Z,101526.69
2018-12-25T06:58:38.617Z,101524.35
2018-12-25T07:01:09.048Z,101527.92
2018-12-25T07:03:41.266Z,101528.09
2018-12-25T07:06:13.496Z,101526.47
2018-12-25T07:12:00.173Z,101534.77
2018-12-25T07:14:31.045Z,101531.07
2018-12-25T07:17:01.842Z,101520.84
2018-12-25T07:19:52.120Z,101517.98
2018-12-25T07:22:22.560Z,101503.64
2018-12-25T07:24:52.996Z,101508.02
2018-12-25T07:27:23.474Z,101508.70
2018-12-25T07:29:54.063Z,101502.97
2018-12-25T07:32:24.881Z,101501.46
2018-12-25T07:34:55.311Z,101497.34
2018-12-25T07:37:25.745Z,101492.69
2018-12-25T07:39:56.205Z,101497.03
2018-12-25T07:42:26.636Z,101498.66
2018-12-25T07:44:57.115Z,101496.25
2018-12-25T07:47:27.565Z,101493.45
2018-12-25T07:49:57.991Z,101498.34
2018-12-25T07:52:28.455Z,101499.38
2018-12-25T07:54:58.885Z,101499.54
2018-12-25T07:57:29.365Z,101495.41
2018-12-25T07:59:59.803Z,101495.23
2018-12-25T08:02:30.232Z,101507.40
2018-12-25T08:05:01.108Z,101509.44
2018-12-25T08:07:31.694Z,101509.58
2018-12-25T08:10:02.182Z,101511.12
2018-12-25T08:12:34.327Z,101505.13
2018-12-25T08:15:05.158Z,101511.05
2018-12-25T08:17:35.684Z,101516.51
2018-12-25T08:20:06.231Z,101525.77
2018-12-25T08:22:36.702Z,101515.63
2018-12-25T08:25:07.135Z,101516.20
2018-12-25T08:27:37.568Z,101517.05
2018-12-25T08:30:08.024Z,101515.73
2018-12-25T08:32:38.453Z,101508.63
2018-12-25T08:35:10.652Z,101513.61
2018-12-25T08:37:41.092Z,101507.84
2018-12-25T08:40:11.534Z,101495.61
2018-12-25T08:42:41.994Z,101503.25
2018-12-25T08:45:31.904Z,101498.97
2018-12-25T08:48:04.096Z,101496.71
2018-12-25T08:50:53.815Z,101510.72
2018-12-25T08:53:24.301Z,101513.00
2018-12-25T08:55:55.041Z,101510.49
2018-12-25T08:58:25.479Z,101522.63
2018-12-25T09:00:55.944Z,101523.52
2018-12-25T09:03:26.709Z,101524.75
2018-12-25T09:05:57.188Z,101532.44
2018-12-25T09:08:34.747Z,101538.22
2018-12-25T09:11:20.994Z,101531.38
2018-12-25T09:13:51.414Z,101526.52
2018-12-25T09:16:21.845Z,101534.33
2018-12-25T09:18:52.305Z,101525.59
2018-12-25T09:21:46.364Z,101525.28
2018-12-25T09:24:34.245Z,101526.08
2018-12-25T09:27:05.045Z,101537.42
2018-12-25T09:29:35.482Z,101541.87
2018-12-25T09:32:05.947Z,101535.17
2018-12-25T09:34:36.389Z,101528.86
2018-12-25T09:37:06.866Z,101530.98
2018-12-25T09:39:37.306Z,101535.26
2018-12-25T09:42:08.447Z,101534.78
2018-12-25T09:44:38.908Z,101535.88
2018-12-25T09:47:09.347Z,101544.36
2018-12-25T09:49:40.144Z,101543.66
2018-12-25T09:52:10.573Z,101547.01
2018-12-25T09:54:41.160Z,101541.23
2018-12-25T09:57:11.619Z,101542.47
2018-12-25T09:59:42.408Z,101547.62
2018-12-25T10:02:12.889Z,101562.65
2018-12-25T10:04:43.343Z,101562.73
2018-12-25T10:07:13.779Z,101559.69
2018-12-25T10:09:44.238Z,101554.88
2018-12-25T10:12:14.680Z,101563.48
2018-12-25T10:14:45.154Z,101555.48
2018-12-25T10:17:34.469Z,101562.87
2018-12-25T10:20:06.670Z,101562.25
2018-12-25T10:22:56.574Z,101558.58
2018-12-25T10:25:27.033Z,101550.55
2018-12-25T10:27:57.474Z,101547.84
2018-12-25T10:30:28.249Z,101544.14
2018-12-25T10:32:58.712Z,101544.70
2018-12-25T10:35:30.861Z,101546.70
2018-12-25T10:38:01.293Z,101541.62
2018-12-25T10:40:31.751Z,101539.05
2018-12-25T10:43:02.185Z,101536.49
2018-12-25T10:45:52.532Z,101532.82
2018-12-25T10:48:23.360Z,101535.47
2018-12-25T10:50:53.790Z,101537.58
2018-12-25T10:53:24.658Z,101534.84
2018-12-25T10:55:55.092Z,101535.06
2018-12-25T10:58:45.059Z,101526.17
2018-12-25T11:01:41.613Z,101533.16
2018-12-25T11:04:12.117Z,101537.08
2018-12-25T11:06:42.634Z,101532.63
2018-12-25T11:09:14.014Z,101528.65
2018-12-25T11:12:05.048Z,101532.63
2018-12-25T11:14:35.477Z,101528.11
2018-12-25T11:17:05.949Z,101517.54
2018-12-25T11:19:36.383Z,101516.00
2018-12-25T11:22:06.809Z,101514.34
2018-12-25T11:24:37.273Z,101516.21
2018-12-25T11:27:07.714Z,101511.70
2018-12-25T11:29:38.185Z,101505.52
2018-12-25T11:32:08.969Z,101508.26
2018-12-25T11:34:39.400Z,101504.19
2018-12-25T11:37:09.858Z,101503.89
2018-12-25T11:39:40.287Z,101503.80
2018-12-25T11:42:30.915Z,101504.70
2018-12-25T11:45:01.350Z,101501.12
2018-12-25T11:47:51.666Z,101489.09
2018-12-25T11:50:22.110Z,101487.56
2018-12-25T11:52:52.549Z,101485.30
2018-12-25T11:55:23.009Z,101478.33
2018-12-25T12:01:03.145Z,101478.39
2018-12-25T12:03:36.025Z,101480.41
2018-12-25T12:06:06.462Z,101478.63
2018-12-25T12:08:37.249Z,101478.66
2018-12-25T12:11:07.686Z,101481.31
2018-12-25T12:13:38.496Z,101486.19
2018-12-25T12:16:08.929Z,101492.18
2018-12-25T12:18:39.359Z,101497.73
2018-12-25T12:21:10.225Z,101498.03
2018-12-25T12:23:40.663Z,101501.71
2018-12-25T12:26:30.588Z,101497.25
2018-12-25T12:29:01.056Z,101496.02
2018-12-25T12:31:31.897Z,101500.47
2018-12-25T12:34:02.383Z,101505.98
2018-12-25T12:36:32.822Z,101508.64
2018-12-25T12:42:19.606Z,101507.22
2018-12-25T12:44:50.045Z,101505.05
2018-12-25T12:47:20.544Z,101504.92
2018-12-25T12:49:50.962Z,101501.97
2018-12-25T12:52:23.158Z,101500.73
2018-12-25T12:54:53.590Z,101490.55
2018-12-25T12:57:24.402Z,101491.99
2018-12-25T12:59:55.232Z,101484.37
2018-12-25T13:02:25.677Z,101485.91
2018-12-25T13:04:56.188Z,101487.81
2018-12-25T13:07:26.989Z,101490.25
2018-12-25T13:09:57.420Z,101492.18
2018-12-25T13:12:27.884Z,101481.17
2018-12-25T13:14:58.309Z,101486.30
2018-12-25T13:17:28.794Z,101491.99
2018-12-25T13:19:59.226Z,101492.68
2018-12-25T13:22:29.765Z,101496.31
2018-12-25T13:25:00.526Z,101489.83
2018-12-25T13:27:30.953Z,101483.19
2018-12-25T13:30:01.522Z,101481.37
2018-12-25T13:32:32.312Z,101489.28
2018-12-25T13:35:02.740Z,101493.94
2018-12-25T13:37:33.596Z,101499.75
2018-12-25T13:40:04.142Z,101499.19
2018-12-25T13:42:34.619Z,101495.30
2018-12-25T13:45:05.131Z,101487.13
2018-12-25T13:47:35.569Z,101498.98
2018-12-25T13:50:25.589Z,101493.03
2018-12-25T13:53:02.761Z,101496.29
2018-12-25T13:55:47.676Z,101489.56
2018-12-25T13:58:18.105Z,101491.28
2018-12-25T14:00:48.941Z,101498.55
2018-12-25T14:03:19.849Z,101498.06
2018-12-25T14:05:52.025Z,101505.19
2018-12-25T14:08:24.223Z,101501.11
2018-12-25T14:10:54.671Z,101489.66
2018-12-25T14:13:25.104Z,101492.47
2018-12-25T14:15:55.573Z,101491.44
2018-12-25T14:18:26.452Z,101497.04
2018-12-25T14:20:59.030Z,101504.06
2018-12-25T14:23:29.469Z,101512.59
2018-12-25T14:25:59.909Z,101515.67
2018-12-25T14:28:30.371Z,101506.75
2018-12-25T14:31:00.815Z,101518.93
2018-12-25T14:33:51.136Z,101513.38
2018-12-25T14:36:21.573Z,101521.73
2018-12-25T14:38:52.007Z,101516.42
2018-12-25T14:41:22.464Z,101514.44
2018-12-25T14:43:52.895Z,101505.81
2018-12-25T14:46:23.378Z,101505.70
2018-12-25T14:48:53.815Z,101511.22
2018-12-25T14:51:24.249Z,101502.11
2018-12-25T14:53:54.705Z,101500.88
2018-12-25T14:56:25.136Z,101496.51
2018-12-25T14:58:55.595Z,101494.61
2018-12-25T15:01:26.037Z,101499.85
2018-12-25T15:03:56.520Z,101504.55
2018-12-25T15:06:26.991Z,101500.36
2018-12-25T15:08:57.432Z,101505.58
2018-12-25T15:11:47.359Z,101498.37
2018-12-25T15:14:18.165Z,101497.14
2018-12-25T15:16:48.640Z,101501.52
2018-12-25T15:19:20.800Z,101502.74
2018-12-25T15:21:51.230Z,101508.98
2018-12-25T15:24:21.684Z,101514.56
2018-12-25T15:26:52.112Z,101512.36
2018-12-25T15:29:23.571Z,101507.45
2018-12-25T15:32:14.564Z,101512.75
2018-12-25T15:34:47.615Z,101508.89
2018-12-25T15:37:18.053Z,101503.25
2018-12-25T15:39:48.822Z,101493.97
2018-12-25T15:42:19.283Z,101497.41
2018-12-25T15:44:49.713Z,101497.74
2018-12-25T15:47:20.199Z,101496.72
2018-12-25T15:49:50.630Z,101492.64
2018-12-25T15:52:21.069Z,101497.77
2018-12-25T15:54:52.234Z,101494.03
2018-12-25T15:57:22.677Z,101489.75
2018-12-25T15:59:53.148Z,101490.59
2018-12-25T16:02:43.371Z,101492.86
2018-12-25T16:05:14.148Z,101494.39
2018-12-25T16:07:44.619Z,101495.20
2018-12-25T16:10:34.552Z,101494.45
2018-12-25T16:13:04.992Z,101492.47
2018-12-25T16:15:35.473Z,101500.88
2018-12-25T16:18:25.375Z,101504.48
2018-12-25T16:21:15.330Z,101505.06
2018-12-25T16:23:45.973Z,101506.42
2018-12-25T16:26:37.421Z,101503.47
2018-12-25T16:29:07.854Z,101503.89
2018-12-25T16:31:38.293Z,101505.81
2018-12-25T16:34:09.086Z,101506.81
2018-12-25T16:39:29.151Z,101503.67
2018-12-25T16:42:01.650Z,101505.67
2018-12-25T16:44:51.158Z,101504.55
2018-12-25T16:47:21.593Z,101505.20
2018-12-25T16:49:52.086Z,101493.88
2018-12-25T16:52:22.961Z,101493.16
2018-12-25T16:54:53.392Z,101486.11
2018-12-25T16:57:23.868Z,101481.95
2018-12-25T16:59:54.305Z,101479.25
2018-12-25T17:02:24.737Z,101479.55
2018-12-25T17:04:55.194Z,101491.00
2018-12-25T17:07:27.760Z,101484.52
2018-12-25T17:09:58.249Z,101485.31
2018-12-25T17:12:28.793Z,101481.92
2018-12-25T17:14:59.194Z,101486.20
2018-12-25T17:17:29.653Z,101484.52
2018-12-25T17:20:00.151Z,101482.59
2018-12-25T17:22:30.657Z,101484.56
2018-12-25T17:25:01.088Z,101497.25
2018-12-25T17:27:31.521Z,101486.52
2018-12-25T17:30:01.985Z,101485.38
2018-12-25T17:32:32.415Z,101489.86
2018-12-25T17:35:04.717Z,101493.36
2018-12-25T17:37:35.562Z,101484.45
2018-12-25T17:40:06.118Z,101484.14
2018-12-25T17:42:36.584Z,101487.52
2018-12-25T17:45:07.300Z,101486.41
2018-12-25T17:47:38.091Z,101485.38
2018-12-25T17:50:08.531Z,101485.59
2018-12-25T17:52:40.681Z,101487.16
2018-12-25T17:55:11.598Z,101482.82
2018-12-25T17:57:42.100Z,101479.69
2018-12-25T18:00:12.980Z,101484.89
2018-12-25T18:02:45.141Z,101483.66
2018-12-25T18:05:15.947Z,101485.47
2018-12-25T18:07:46.750Z,101489.66
2018-12-25T18:10:17.516Z,101490.59
2018-12-25T18:12:48.009Z,101489.02
2018-12-25T18:15:18.448Z,101490.41
2018-12-25T18:17:48.891Z,101488.33
2018-12-25T18:20:19.743Z,101480.92
2018-12-25T18:23:09.217Z,101482.16
2018-12-25T18:25:39.704Z,101489.15
2018-12-25T18:28:10.449Z,101490.84
2018-12-25T18:30:40.884Z,101487.25
2018-12-25T18:33:12.027Z,101496.23
2018-12-25T18:35:44.508Z,101498.05
2018-12-25T18:38:34.463Z,101503.38
2018-12-25T18:41:24.371Z,101505.58
2018-12-25T18:43:54.858Z,101502.32
2018-12-25T18:46:25.296Z,101507.05
2018-12-25T18:48:55.736Z,101502.92
2018-12-25T18:51:26.198Z,101501.69
2018-12-25T18:53:56.641Z,101507.30
2018-12-25T18:56:46.945Z,101510.28
2018-12-25T18:59:17.382Z,101506.20
2018-12-25T19:01:47.864Z,101510.70
2018-12-25T19:04:18.457Z,101507.02
2018-12-25T19:06:48.934Z,101509.13
2018-12-25T19:09:19.792Z,101510.24
2018-12-25T19:11:50.225Z,101505.05
2018-12-25T19:14:20.704Z,101510.70
2018-12-25T19:16:51.714Z,101509.13
2018-12-25T19:19:22.166Z,101512.41
2018-12-25T19:21:52.633Z,101508.32
2018-12-25T19:24:25.196Z,101504.64
2018-12-25T19:26:55.676Z,101503.61
2018-12-25T19:29:26.112Z,101516.28
2018-12-25T19:31:58.430Z,101514.86
2018-12-25T19:34:29.279Z,101524.69
2018-12-25T19:37:00.104Z,101515.55
2018-12-25T19:39:30.581Z,101521.52
2018-12-25T19:42:01.025Z,101516.73
2018-12-25T19:44:33.183Z,101522.72
2018-12-25T19:47:03.654Z,101516.81
2018-12-25T19:49:53.055Z,101514.89
2018-12-25T19:52:43.019Z,101516.13
2018-12-25T19:55:32.930Z,101513.66
2018-12-25T19:58:03.428Z,101517.55
2018-12-25T20:00:53.336Z,101516.48
2018-12-25T20:03:29.587Z,101507.53
2018-12-25T20:06:38.106Z,101507.53
2018-12-25T20:09:46.638Z,101516.28
2018-12-25T20:12:55.063Z,101511.03
2018-12-25T20:16:03.523Z,101515.89
2018-12-25T20:19:11.956Z,101511.70
2018-12-25T20:22:20.721Z,101509.89
2018-12-25T20:29:09.246Z,101507.02
2018-12-25T20:32:18.026Z,101502.34
2018-12-25T20:35:26.499Z,101508.74
2018-12-25T20:38:35.228Z,101512.33
2018-12-25T20:41:43.688Z,101509.70
2018-12-25T20:44:52.111Z,101513.23
2018-12-25T20:48:19.644Z,101507.83
2018-12-25T20:51:28.038Z,101509.61
2018-12-25T20:54:36.568Z,101508.37
2018-12-25T21:01:33.257Z,101505.59
2018-12-25T21:04:41.853Z,101498.03
2018-12-25T21:07:50.640Z,101495.08
2018-12-25T21:10:59.368Z,101493.67
2018-12-25T21:14:07.935Z,101496.42
2018-12-25T21:17:16.363Z,101488.56
2018-12-25T21:20:24.840Z,101491.73
2018-12-25T21:23:33.266Z,101488.78
2018-12-25T21:26:41.743Z,101488.78
2018-12-25T21:35:40.923Z,101481.09
2018-12-25T21:38:11.370Z,101481.50
2018-12-25T21:40:41.826Z,101476.35
2018-12-25T21:43:12.524Z,101476.96
2018-12-25T21:45:42.971Z,101472.68
2018-12-25T21:48:13.421Z,101476.53
2018-12-25T21:50:43.903Z,101482.53
2018-12-25T21:53:14.351Z,101482.44
2018-12-25T21:55:45.218Z,101486.50
2018-12-25T21:58:15.763Z,101477.85
2018-12-25T22:01:25.544Z,101481.59
2018-12-25T22:07:25.278Z,101487.65
2018-12-25T22:09:55.723Z,101494.76
2018-12-25T22:12:26.218Z,101488.34
2018-12-25T22:14:56.980Z,101484.16
2018-12-25T22:17:27.428Z,101492.32
2018-12-25T22:19:58.309Z,101490.92
2018-12-25T22:22:28.755Z,101489.55
2018-12-25T22:24:59.255Z,101489.37
2018-12-25T22:27:30.054Z,101480.55
2018-12-25T22:30:02.664Z,101484.48
2018-12-25T22:32:33.144Z,101481.44
2018-12-25T22:35:03.592Z,101479.97
2018-12-25T22:37:34.083Z,101474.68
2018-12-25T22:40:05.064Z,101465.50
2018-12-25T22:42:35.504Z,101462.12
2018-12-25T22:45:06.508Z,101466.86
2018-12-25T22:47:37.302Z,101475.30
2018-12-25T22:50:08.217Z,101470.88
2018-12-25T22:52:38.667Z,101472.78
2018-12-25T22:55:35.721Z,101480.11
2018-12-25T22:58:20.359Z,101474.11
2018-12-25T23:00:52.641Z,101469.30
2018-12-25T23:03:23.088Z,101467.05
2018-12-25T23:05:53.877Z,101460.20
2018-12-25T23:08:24.350Z,101456.22
2018-12-25T23:10:54.789Z,101450.14
2018-12-25T23:13:25.293Z,101458.56
2018-12-25T23:15:55.734Z,101456.55
2018-12-25T23:18:26.341Z,101463.77
2018-12-25T23:20:56.807Z,101471.33
2018-12-25T23:23:27.640Z,101463.77
2018-12-25T23:25:58.134Z,101461.30
2018-12-25T23:28:30.303Z,101463.95
2018-12-25T23:31:00.761Z,101459.98
2018-12-25T23:33:31.218Z,101469.25
2018-12-25T23:36:01.655Z,101454.28
2018-12-25T23:38:32.530Z,101450.55
2018-12-25T23:41:03.246Z,101453.59
2018-12-25T23:43:33.697Z,101456.63
2018-12-25T23:46:23.632Z,101456.94
2018-12-25T23:49:13.847Z,101461.31
2018-12-25T23:51:44.347Z,101452.05
2018-12-25T23:54:14.787Z,101448.16
2018-12-25T23:56:45.245Z,101450.55
2018-12-25T23:59:15.778Z,101451.11
